Evanston-Uinta County Airport-Burns Field Evanston US
ICAO: KEVW
IATA: EVW
Category: Medium
Scheduled Services: No

Elevation: 7143 ft
TransAlt. 18000 ft.

Airport Communications:
ASOS:120
SALT LAKE CITY CNTR:127.7
CTAF/UNICOM:122.8

KEVW Zoom In..

Runways:

(A) RW 05 length 7300 ft width 100 ft
---- / hdg 54

(B) RW 23 length 7300 ft width 100 ft
ILS 108.90 / hdg 234

Location; KEVW
Day. 26 / Time. 13.53 Zulu
* Altimeter: 30.01
* Temperature: 13° c. 55.4°f.
* Wind from: 210° Speed 05 kn.
Dewpoint: 01° c.
Visibility: 10 Statute Miles.
Clouds: Clear (automated report).

KEVW 261353Z AUTO 21005KT 10SM CLR 13/01 A3001 RMK AO2 SLP067 T01280006 $


Wind From 210°
Speed 05 kn.

 
 
jpsmedia.com for Web Design SOUNDCLOUD worldairports.se 2018   terms of use